This is the latest recevied weather packets stored in our database for station/object N1UNH. If no packets are shown the sender has not sent any weather packets the latest 10 day(s).
| Time | Temp. | Humidity | Pressure | Rain* | Wind** | Luminosity | Snow |
|---|---|---|---|---|---|---|---|
| 1777891136 | 5.56° C | 76% | 1014.9 hPa | 0 mm | - | 28 W/m² | - |
| 1777890831 | 5.56° C | 76% | 1014.9 hPa | 0 mm | - | 25 W/m² | - |
| 1777890528 | 5.56° C | 77% | 1014.9 hPa | 0 mm | - | 23 W/m² | - |
| 1777890223 | 5° C | 78% | 1014.7 hPa | 0 mm | - | 25 W/m² | - |
| 1777889920 | 5° C | 80% | 1015 hPa | 0 mm | - | 22 W/m² | - |
| 1777889619 | 5.56° C | 78% | 1014.8 hPa | 0 mm | - | 17 W/m² | - |
| 1777889315 | 5.56° C | 77% | 1014.9 hPa | 0 mm | - | 14 W/m² | - |
| 1777889012 | 5.56° C | 77% | 1014.8 hPa | 0 mm | - | 8 W/m² | - |
| 1777888710 | 5.56° C | 74% | 1014.7 hPa | 0 mm | - | 4 W/m² | - |
| 1777888405 | 5° C | 77% | 1015 hPa | 0 mm | - | 5 W/m² | - |
| 1777888102 | 4.44° C | 81% | 1014.7 hPa | 0 mm | - | 3 W/m² | - |
| 1777887800 | 4.44° C | 81% | 1014.6 hPa | 0 mm | - | 1 W/m² | - |
| 1777887496 | 4.44° C | 79% | 1014.6 hPa | 0 mm | - | 1 W/m² | - |
| 1777887192 | 4.44° C | 78% | 1014.6 hPa | 0 mm | - | 1 W/m² | - |
| 1777886888 | 4.44° C | 79% | 1014.7 hPa | 0 mm | - | 1 W/m² | - |
| 1777886584 | 4.44° C | 77% | 1014.6 hPa | 0 mm | - | 0 W/m² | - |
| 1777886281 | 4.44° C | 77% | 1014.6 hPa | 0 mm | - | 0 W/m² | - |
| 1777885979 | 3.89° C | 82% | 1014.6 hPa | 0 mm | - | 0 W/m² | - |
| 1777885678 | 3.89° C | 79% | 1014.8 hPa | 0 mm | - | 0 W/m² | - |
| 1777885375 | 3.89° C | 81% | 1014.7 hPa | 0 mm | - | 0 W/m² | - |
| 1777885075 | 3.89° C | 84% | 1014.7 hPa | 0 mm | - | 0 W/m² | - |
| 1777884770 | 3.33° C | 82% | 1014.7 hPa | 0 mm | - | 0 W/m² | - |
| 1777884465 | 3.33° C | 85% | 1014.6 hPa | 0 mm | - | 0 W/m² | - |
| 1777884164 | 3.89° C | 81% | 1014.8 hPa | 0 mm | - | 0 W/m² | - |
| 1777883860 | 3.89° C | 78% | 1014.7 hPa | 0 mm | - | 0 W/m² | - |
* Rain latest hour (hover to see other rain measurements)
** Current wind speed in m/s (hover to see current wind gust speed)